Time;durP1;ratioP1;P1;durP2;ratioP2;P2;SDS_P1;SDS_P2;PMS_P1;PMS_P2;Temp;Humidity;BMP_temperature;BMP_pressure;BME280_temperature;BME280_humidity;BME280_pressure;Samples;Min_cycle;Max_cycle;Signal;HPM_P1;HPM_P2
2022/01/20 00:02:01;;;;;;;14.70;2.80;;;4.00;99.90;;;;;;5055774;28;20069;-76
2022/01/20 00:05:12;;;;;;;11.80;3.03;;;4.00;99.90;;;;;;5056663;28;20124;-76
2022/01/20 00:26:13;;;;;;;16.73;2.17;;;4.10;99.90;;;;;;5087923;28;20322;-75
2022/01/20 00:28:43;;;;;;;10.40;2.57;;;4.10;99.90;;;;;;5056247;28;20075;-75
2022/01/20 00:34:11;;;;;;;15.70;2.37;;;4.20;99.90;;;;;;5056711;28;20052;-75
2022/01/20 00:39:22;;;;;;;10.03;1.80;;;4.20;99.90;;;;;;5056486;28;20049;-75
2022/01/20 00:41:48;;;;;;;6.70;1.70;;;4.20;99.90;;;;;;5059356;28;20033;-75
2022/01/20 00:44:13;;;;;;;14.73;2.30;;;4.20;99.90;;;;;;5089486;28;20622;-75
2022/01/20 00:46:39;;;;;;;14.03;2.30;;;4.20;99.90;;;;;;5090367;28;20108;-75
2022/01/20 00:49:05;;;;;;;14.90;2.07;;;4.20;99.90;;;;;;5054927;28;20507;-75
2022/01/20 00:51:31;;;;;;;10.83;2.07;;;4.20;99.90;;;;;;5023419;28;20079;-74
2022/01/20 00:53:57;;;;;;;11.50;2.43;;;4.10;99.90;;;;;;5055151;28;20048;-75
2022/01/20 00:56:22;;;;;;;12.30;2.07;;;4.10;99.90;;;;;;5072228;28;20095;-75
2022/01/20 00:58:48;;;;;;;7.73;1.80;;;4.10;99.90;;;;;;5072264;28;20049;-75
2022/01/20 01:01:14;;;;;;;15.63;2.77;;;4.00;99.90;;;;;;5088695;28;20036;-75
2022/01/20 01:03:40;;;;;;;8.53;1.80;;;4.00;99.90;;;;;;5072574;28;20041;-75
2022/01/20 01:06:23;;;;;;;10.93;2.10;;;4.00;99.90;;;;;;5054750;28;20048;-75
2022/01/20 01:08:49;;;;;;;11.90;2.00;;;4.00;99.90;;;;;;5053682;28;20044;-75
2022/01/20 01:11:15;;;;;;;12.33;1.80;;;4.00;99.90;;;;;;5056670;28;20095;-74
2022/01/20 01:13:40;;;;;;;10.43;2.27;;;4.00;99.90;;;;;;5054992;28;20045;-76
2022/01/20 01:16:09;;;;;;;12.30;2.00;;;3.90;99.90;;;;;;5055985;28;20044;-75
2022/01/20 01:24:15;;;;;;;13.37;2.30;;;3.90;99.90;;;;;;5041390;28;20053;-76
2022/01/20 01:26:41;;;;;;;13.17;2.10;;;3.90;99.90;;;;;;5070928;28;20037;-75
2022/01/20 01:29:23;;;;;;;9.80;2.03;;;3.90;99.90;;;;;;5056200;28;20048;-74
2022/01/20 01:31:49;;;;;;;13.37;2.53;;;4.00;99.90;;;;;;5066507;28;20044;-75
2022/01/20 01:34:16;;;;;;;11.87;2.13;;;3.90;99.90;;;;;;5055467;28;20506;-75
2022/01/20 01:37:04;;;;;;;7.73;1.80;;;4.00;99.90;;;;;;5054832;28;20060;-74
2022/01/20 01:39:30;;;;;;;17.87;2.53;;;4.00;99.90;;;;;;5052872;28;20052;-75
2022/01/20 01:41:57;;;;;;;12.07;2.33;;;4.00;99.90;;;;;;5056066;28;20053;-75
2022/01/20 01:44:27;;;;;;;6.20;1.73;;;4.00;99.90;;;;;;5051443;28;20084;-77
2022/01/20 01:46:54;;;;;;;13.77;2.30;;;4.00;99.90;;;;;;5056496;28;20053;-75
2022/01/20 01:49:21;;;;;;;11.40;2.03;;;4.10;99.90;;;;;;5054569;28;20041;-75
2022/01/20 01:51:47;;;;;;;12.90;1.90;;;4.20;99.90;;;;;;5054063;28;20040;-75
2022/01/20 01:54:15;;;;;;;6.20;1.60;;;4.20;99.90;;;;;;5038083;28;20059;-75
2022/01/20 01:56:41;;;;;;;13.00;1.97;;;4.10;99.90;;;;;;5054229;28;20057;-74
2022/01/20 01:59:07;;;;;;;7.10;1.63;;;4.10;99.90;;;;;;5054835;28;20045;-75
2022/01/20 02:01:36;;;;;;;10.10;1.77;;;4.00;99.90;;;;;;5054347;28;20116;-75
2022/01/20 02:04:17;;;;;;;9.77;1.50;;;4.10;99.90;;;;;;5068487;28;20045;-74
2022/01/20 02:20:20;;;;;;;4.17;1.20;;;3.70;99.90;;;;;;5088438;28;20041;-75
2022/01/20 02:22:46;;;;;;;6.17;1.30;;;3.70;99.90;;;;;;5053491;28;20065;-74
2022/01/20 02:25:23;;;;;;;5.37;1.37;;;3.70;99.90;;;;;;5071174;28;20043;-75
2022/01/20 02:27:50;;;;;;;6.10;1.33;;;3.70;99.90;;;;;;5035377;28;20109;-75
2022/01/20 02:30:17;;;;;;;6.53;1.20;;;3.70;99.90;;;;;;5053986;28;20037;-76
2022/01/20 02:32:55;;;;;;;5.10;1.47;;;3.70;99.90;;;;;;5052248;28;20037;-75
2022/01/20 02:35:22;;;;;;;7.33;1.40;;;3.70;99.90;;;;;;5055857;28;20057;-75
2022/01/20 02:37:52;;;;;;;6.00;1.47;;;3.70;99.90;;;;;;5055186;28;20051;-75
2022/01/20 02:45:36;;;;;;;7.63;1.40;;;3.90;99.90;;;;;;5053324;28;20045;-74
2022/01/20 02:48:02;;;;;;;8.80;1.50;;;3.90;99.90;;;;;;5054451;28;20053;-75
2022/01/20 02:50:28;;;;;;;11.30;1.30;;;3.80;99.90;;;;;;5055734;28;21029;-75
2022/01/20 02:52:53;;;;;;;9.27;1.60;;;3.90;99.90;;;;;;5053574;28;20070;-76
2022/01/20 02:55:19;;;;;;;13.03;1.80;;;3.90;99.90;;;;;;5071337;28;20060;-74
2022/01/20 02:57:45;;;;;;;13.00;2.40;;;3.80;99.90;;;;;;5054036;28;20045;-74
2022/01/20 03:00:12;;;;;;;7.10;1.50;;;3.70;99.90;;;;;;5054313;28;20077;-75
2022/01/20 03:02:38;;;;;;;12.53;1.93;;;3.80;99.90;;;;;;5037360;28;20037;-74
2022/01/20 03:05:07;;;;;;;11.37;1.93;;;3.80;99.90;;;;;;5036413;28;20041;-75
2022/01/20 03:07:32;;;;;;;9.90;2.60;;;3.80;99.90;;;;;;5054521;28;20124;-74
2022/01/20 03:09:58;;;;;;;11.20;2.27;;;3.70;99.90;;;;;;5086645;28;20088;-74
2022/01/20 03:12:24;;;;;;;13.27;2.47;;;3.70;99.90;;;;;;5038821;28;20052;-76
2022/01/20 03:14:50;;;;;;;12.73;2.27;;;3.70;99.90;;;;;;5038926;28;20047;-75
2022/01/20 03:17:17;;;;;;;15.03;2.70;;;3.60;99.90;;;;;;5060859;28;20565;-75
2022/01/20 03:19:43;;;;;;;12.40;3.07;;;3.60;99.90;;;;;;5057321;28;20057;-74
2022/01/20 03:22:08;;;;;;;15.13;2.53;;;3.60;99.90;;;;;;5057209;28;20080;-76
2022/01/20 03:24:34;;;;;;;14.17;2.57;;;3.60;99.90;;;;;;5041092;28;20049;-75
2022/01/20 03:27:00;;;;;;;11.93;2.50;;;3.50;99.90;;;;;;5040348;28;20052;-75
2022/01/20 03:29:25;;;;;;;17.33;3.00;;;3.60;99.90;;;;;;5071629;28;20040;-75
2022/01/20 03:31:51;;;;;;;16.17;3.47;;;3.60;99.90;;;;;;5056153;28;20045;-75
2022/01/20 03:34:17;;;;;;;19.53;3.20;;;3.50;99.90;;;;;;5060367;28;20044;-76
2022/01/20 03:36:42;;;;;;;14.80;2.30;;;3.60;99.90;;;;;;5056624;28;20068;-75
2022/01/20 03:39:08;;;;;;;17.90;3.23;;;3.60;99.90;;;;;;5073649;28;20064;-76
2022/01/20 03:41:34;;;;;;;14.43;2.60;;;3.60;99.90;;;;;;5056996;28;20049;-73
2022/01/20 03:43:59;;;;;;;14.57;3.40;;;3.70;99.90;;;;;;5056592;28;20118;-79
2022/01/20 03:46:25;;;;;;;14.00;2.90;;;3.70;99.90;;;;;;5058538;28;20091;-79
2022/01/20 03:48:53;;;;;;;15.10;3.20;;;3.70;99.90;;;;;;5041418;28;20040;-77
2022/01/20 03:51:25;;;;;;;14.93;3.30;;;3.80;99.90;;;;;;5073720;28;20072;-69
2022/01/20 03:53:53;;;;;;;19.30;3.60;;;3.70;99.90;;;;;;5090233;28;20052;-69
2022/01/20 03:56:20;;;;;;;20.63;3.33;;;3.60;99.90;;;;;;5027551;28;20061;-70
2022/01/20 03:58:47;;;;;;;19.77;3.37;;;3.60;99.90;;;;;;5037937;28;20053;-70
2022/01/20 04:01:14;;;;;;;20.17;3.13;;;3.60;99.90;;;;;;5055712;28;20404;-69
2022/01/20 04:03:40;;;;;;;15.87;3.40;;;3.60;99.90;;;;;;5056612;28;20041;-69
2022/01/20 04:06:07;;;;;;;18.70;3.70;;;3.60;99.90;;;;;;5039330;28;20089;-70
2022/01/20 04:08:35;;;;;;;22.83;4.80;;;3.60;99.90;;;;;;5057445;28;20423;-70
2022/01/20 04:11:11;;;;;;;19.57;3.40;;;3.60;99.90;;;;;;5056275;28;20056;-70
2022/01/20 04:13:37;;;;;;;18.90;3.50;;;3.50;99.90;;;;;;5055875;28;20101;-70
2022/01/20 04:16:13;;;;;;;15.20;2.60;;;3.50;99.90;;;;;;5057195;28;20036;-69
2022/01/20 04:18:41;;;;;;;14.83;2.37;;;3.50;99.90;;;;;;5039298;28;20051;-70
2022/01/20 04:21:07;;;;;;;14.20;2.97;;;3.60;99.90;;;;;;5054709;28;20048;-70
2022/01/20 04:23:32;;;;;;;12.57;2.57;;;3.60;99.90;;;;;;5038827;28;20048;-70
2022/01/20 04:25:58;;;;;;;11.20;2.63;;;3.60;99.90;;;;;;5056151;28;20057;-68
2022/01/20 04:28:24;;;;;;;12.80;2.40;;;3.60;99.90;;;;;;5055626;28;20531;-73
2022/01/20 04:30:49;;;;;;;11.60;2.90;;;3.60;99.90;;;;;;5038348;28;20045;-72
2022/01/20 04:33:15;;;;;;;14.40;2.60;;;3.60;99.90;;;;;;5007532;28;20037;-73
2022/01/20 04:35:41;;;;;;;10.13;2.43;;;3.50;99.90;;;;;;5071911;28;20053;-69
2022/01/20 04:38:07;;;;;;;12.90;2.47;;;3.50;99.90;;;;;;5040068;28;20055;-69
2022/01/20 04:40:39;;;;;;;6.60;2.30;;;3.50;99.90;;;;;;5057902;28;20126;-69
2022/01/20 04:43:05;;;;;;;13.25;2.20;;;3.50;99.90;;;;;;5023635;28;20052;-69
2022/01/20 04:45:36;;;;;;;9.60;2.20;;;3.50;99.90;;;;;;5039258;28;20052;-70
2022/01/20 04:48:21;;;;;;;11.35;2.47;;;3.60;99.90;;;;;;5056782;28;20050;-69
2022/01/20 04:59:00;;;;;;;11.33;2.17;;;3.60;99.90;;;;;;5055328;28;20756;-76
2022/01/20 05:01:25;;;;;;;11.27;2.03;;;3.60;99.90;;;;;;5071262;28;20032;-76
2022/01/20 05:03:51;;;;;;;10.70;2.43;;;3.60;99.90;;;;;;5056762;28;20045;-77
2022/01/20 05:06:17;;;;;;;7.57;2.30;;;3.50;99.90;;;;;;5055559;28;20044;-74
2022/01/20 05:08:43;;;;;;;9.67;1.90;;;3.50;99.90;;;;;;5055200;28;20053;-76
2022/01/20 05:11:10;;;;;;;12.20;2.40;;;3.50;99.90;;;;;;5071592;28;20047;-75
2022/01/20 05:13:40;;;;;;;12.47;2.73;;;3.40;99.90;;;;;;5056267;28;20767;-73
2022/01/20 05:16:06;;;;;;;12.83;2.00;;;3.40;99.90;;;;;;5071080;28;20053;-72
2022/01/20 05:18:32;;;;;;;9.87;1.77;;;3.30;99.90;;;;;;5054159;28;20070;-72
2022/01/20 05:20:58;;;;;;;9.87;2.20;;;3.30;99.90;;;;;;5039159;28;20108;-71
2022/01/20 05:23:24;;;;;;;10.03;2.87;;;3.40;99.90;;;;;;5037544;28;20083;-70
2022/01/20 05:25:50;;;;;;;9.90;2.30;;;3.40;99.90;;;;;;5054674;28;20045;-70
2022/01/20 05:28:16;;;;;;;10.10;2.70;;;3.30;99.90;;;;;;5037873;28;20114;-71
2022/01/20 05:30:42;;;;;;;8.97;2.40;;;3.30;99.90;;;;;;5057872;28;20324;-68
2022/01/20 05:33:09;;;;;;;12.87;2.00;;;3.30;99.90;;;;;;5055274;28;20049;-69
2022/01/20 05:35:35;;;;;;;7.70;2.30;;;3.40;99.90;;;;;;5051060;28;20040;-69
2022/01/20 05:38:01;;;;;;;7.13;1.90;;;3.40;99.90;;;;;;5038480;28;20114;-68
2022/01/20 05:40:27;;;;;;;10.67;2.43;;;3.30;99.90;;;;;;5020539;28;20053;-68
2022/01/20 05:42:53;;;;;;;6.53;1.50;;;3.30;99.90;;;;;;5020373;28;20072;-69
2022/01/20 05:45:19;;;;;;;9.03;1.80;;;3.30;99.90;;;;;;5055808;28;20076;-69
2022/01/20 05:47:48;;;;;;;7.30;1.30;;;3.20;99.90;;;;;;5054722;28;20071;-70
2022/01/20 05:50:17;;;;;;;6.73;1.50;;;3.20;99.90;;;;;;5039562;28;20048;-69
2022/01/20 05:52:43;;;;;;;7.43;1.47;;;3.10;99.90;;;;;;5037317;28;20051;-68
2022/01/20 05:55:12;;;;;;;5.60;1.50;;;3.00;99.90;;;;;;5038778;28;20036;-76
2022/01/20 05:57:38;;;;;;;4.97;1.27;;;3.00;99.90;;;;;;5021506;28;20049;-77
2022/01/20 06:00:05;;;;;;;4.57;1.30;;;2.90;99.90;;;;;;5036573;28;20079;-75
2022/01/20 06:02:35;;;;;;;6.57;1.20;;;2.90;99.90;;;;;;5053836;28;20053;-76
2022/01/20 06:05:04;;;;;;;8.10;1.57;;;2.80;99.90;;;;;;5037713;28;20045;-76
2022/01/20 06:07:30;;;;;;;6.83;1.67;;;2.70;99.90;;;;;;5055473;28;20622;-74
2022/01/20 06:09:55;;;;;;;7.50;1.53;;;2.70;99.90;;;;;;5053122;28;20041;-76
2022/01/20 06:12:21;;;;;;;10.20;1.93;;;2.70;99.90;;;;;;5005890;28;20041;-76
2022/01/20 06:14:47;;;;;;;7.43;1.70;;;2.70;99.90;;;;;;5053525;28;20033;-76
2022/01/20 06:17:13;;;;;;;10.20;1.70;;;2.60;99.90;;;;;;5053908;28;20091;-75
2022/01/20 06:19:39;;;;;;;8.20;1.70;;;2.60;99.90;;;;;;5068879;28;20037;-75
2022/01/20 06:22:04;;;;;;;6.77;1.63;;;2.60;99.90;;;;;;5004012;28;20080;-75
2022/01/20 06:24:30;;;;;;;8.93;2.43;;;2.60;99.90;;;;;;5056323;28;20473;-76
2022/01/20 06:26:56;;;;;;;8.83;1.83;;;2.60;99.90;;;;;;5070016;28;20056;-76
2022/01/20 06:29:22;;;;;;;9.93;2.57;;;2.60;99.90;;;;;;5053518;28;20037;-77
2022/01/20 06:31:48;;;;;;;8.20;2.13;;;2.70;99.90;;;;;;5036407;28;20053;-75
2022/01/20 06:34:13;;;;;;;17.73;3.23;;;2.60;99.90;;;;;;5022308;28;20445;-76
2022/01/20 06:36:39;;;;;;;8.63;1.90;;;2.70;99.90;;;;;;5053517;28;20047;-76
2022/01/20 06:39:05;;;;;;;13.00;1.97;;;2.60;99.90;;;;;;5053419;28;20140;-75
2022/01/20 06:41:35;;;;;;;12.50;2.60;;;2.70;99.90;;;;;;5037969;28;20542;-77
2022/01/20 06:44:01;;;;;;;11.40;2.20;;;2.70;99.90;;;;;;5021956;28;20100;-75
2022/01/20 06:46:27;;;;;;;9.67;2.10;;;2.60;99.90;;;;;;5072372;28;20099;-75
2022/01/20 06:48:52;;;;;;;11.67;2.37;;;2.70;99.90;;;;;;5022024;28;20462;-75
2022/01/20 06:51:18;;;;;;;13.13;2.30;;;2.70;99.90;;;;;;5028920;28;20055;-75
2022/01/20 06:53:44;;;;;;;13.37;2.30;;;2.70;99.90;;;;;;5035993;28;20041;-75
2022/01/20 06:56:10;;;;;;;12.97;2.00;;;2.70;99.90;;;;;;5026404;28;20091;-75
2022/01/20 06:58:36;;;;;;;11.47;3.47;;;2.70;99.90;;;;;;5029831;28;20049;-74
2022/01/20 07:01:01;;;;;;;9.10;2.03;;;2.80;99.90;;;;;;5025835;28;20044;-75
2022/01/20 07:03:27;;;;;;;8.90;2.00;;;2.80;99.90;;;;;;5065838;28;20041;-74
2022/01/20 07:05:53;;;;;;;9.13;1.80;;;2.80;99.90;;;;;;5040728;28;20049;-75
2022/01/20 07:08:19;;;;;;;8.40;2.00;;;2.70;99.90;;;;;;5024914;28;20075;-75
2022/01/20 07:10:44;;;;;;;8.40;1.83;;;2.70;99.90;;;;;;5056828;28;20104;-75
2022/01/20 07:13:10;;;;;;;9.20;2.20;;;2.60;99.90;;;;;;5025153;28;20075;-75
2022/01/20 07:15:36;;;;;;;10.27;1.70;;;2.60;99.90;;;;;;5040079;28;20052;-75
2022/01/20 07:18:01;;;;;;;10.37;1.60;;;2.50;99.90;;;;;;5040988;28;20051;-75
2022/01/20 07:20:28;;;;;;;6.00;1.87;;;2.50;99.90;;;;;;5029538;28;20068;-74
2022/01/20 07:22:54;;;;;;;10.17;2.23;;;2.50;99.90;;;;;;5024303;28;20049;-74
2022/01/20 07:25:20;;;;;;;10.47;2.03;;;2.50;99.90;;;;;;5024822;28;20045;-74
2022/01/20 07:27:46;;;;;;;10.80;2.23;;;2.40;99.90;;;;;;5023556;28;20049;-75
2022/01/20 07:30:12;;;;;;;10.67;2.60;;;2.50;99.90;;;;;;5023706;28;20076;-74
2022/01/20 07:32:38;;;;;;;8.33;2.07;;;2.40;99.90;;;;;;5016001;28;20082;-74
2022/01/20 07:35:04;;;;;;;5.83;1.97;;;2.40;99.90;;;;;;5020781;28;20041;-74
2022/01/20 07:37:30;;;;;;;9.93;2.10;;;2.40;99.90;;;;;;5028221;28;20117;-74
2022/01/20 07:39:56;;;;;;;12.43;2.17;;;2.40;99.90;;;;;;5032238;28;20049;-74
2022/01/20 07:42:21;;;;;;;11.63;2.13;;;2.40;99.90;;;;;;5019885;28;20126;-74
2022/01/20 07:44:47;;;;;;;10.03;2.20;;;2.40;99.90;;;;;;5077745;28;20052;-74
2022/01/20 07:47:13;;;;;;;11.73;2.00;;;2.50;99.90;;;;;;5046270;28;20044;-75
2022/01/20 07:49:39;;;;;;;11.17;2.00;;;2.50;99.90;;;;;;5014849;28;20037;-74
2022/01/20 07:52:05;;;;;;;11.43;2.37;;;2.60;99.90;;;;;;5014651;28;20131;-74
2022/01/20 07:54:31;;;;;;;10.10;1.90;;;2.60;99.90;;;;;;4999723;28;20076;-77
2022/01/20 07:56:56;;;;;;;8.63;1.80;;;2.60;99.90;;;;;;5015365;28;20080;-75
2022/01/20 07:59:24;;;;;;;9.03;2.10;;;2.60;99.90;;;;;;5031932;28;20049;-76
2022/01/20 08:01:51;;;;;;;9.17;2.10;;;2.50;99.90;;;;;;5014394;28;20053;-76
2022/01/20 08:04:17;;;;;;;12.07;1.80;;;2.60;99.90;;;;;;5062511;28;20439;-76
2022/01/20 08:06:43;;;;;;;8.87;2.50;;;2.50;99.90;;;;;;5014250;28;20067;-75
2022/01/20 08:09:09;;;;;;;12.37;2.13;;;2.50;99.90;;;;;;5045969;28;20048;-75
2022/01/20 08:11:35;;;;;;;8.87;1.93;;;2.50;99.90;;;;;;5016576;28;20481;-75
2022/01/20 08:14:00;;;;;;;7.73;2.07;;;2.60;99.90;;;;;;5031327;28;20045;-75
2022/01/20 08:16:26;;;;;;;9.73;1.93;;;2.70;99.90;;;;;;5064195;28;20048;-75
2022/01/20 08:18:53;;;;;;;8.97;1.70;;;2.60;99.90;;;;;;5015166;28;20053;-75
2022/01/20 08:21:20;;;;;;;8.40;1.47;;;2.60;99.90;;;;;;5016354;28;20578;-76
2022/01/20 08:23:46;;;;;;;4.30;1.70;;;2.60;99.90;;;;;;5064284;28;20111;-76
2022/01/20 08:26:11;;;;;;;6.77;1.70;;;2.50;99.90;;;;;;5031047;28;20048;-76
2022/01/20 08:28:37;;;;;;;7.43;1.80;;;2.40;99.90;;;;;;5014647;28;20110;-75
2022/01/20 08:31:03;;;;;;;11.57;1.93;;;2.40;99.90;;;;;;5040371;28;20056;-75
2022/01/20 08:33:29;;;;;;;8.83;1.70;;;2.40;99.90;;;;;;5015358;28;20044;-76
2022/01/20 08:35:55;;;;;;;12.93;1.97;;;2.50;99.90;;;;;;5041829;28;20044;-76
2022/01/20 08:38:20;;;;;;;8.97;1.47;;;2.40;99.90;;;;;;5030552;28;20056;-75
2022/01/20 08:40:47;;;;;;;12.30;2.53;;;2.40;99.90;;;;;;5029633;28;20051;-75
2022/01/20 08:43:13;;;;;;;9.07;2.37;;;2.40;99.90;;;;;;5080187;28;20061;-75
2022/01/20 08:45:39;;;;;;;11.07;2.67;;;2.50;99.90;;;;;;5047910;28;20080;-75
2022/01/20 08:48:08;;;;;;;14.40;3.73;;;2.50;99.90;;;;;;5046478;28;20266;-75
2022/01/20 08:50:35;;;;;;;13.03;2.30;;;2.50;99.90;;;;;;5069069;28;20045;-75
2022/01/20 08:53:00;;;;;;;11.73;2.17;;;2.60;99.90;;;;;;5013416;28;20045;-75
2022/01/20 08:55:26;;;;;;;14.13;3.00;;;2.60;99.90;;;;;;5046662;28;20056;-75
2022/01/20 08:57:54;;;;;;;17.07;2.57;;;2.70;99.90;;;;;;5061627;28;20056;-75
2022/01/20 09:00:21;;;;;;;13.00;2.40;;;2.70;99.90;;;;;;5062957;28;20403;-75
2022/01/20 09:02:46;;;;;;;15.27;2.70;;;2.80;99.90;;;;;;5031225;28;20044;-75
2022/01/20 09:05:12;;;;;;;11.77;3.63;;;2.80;99.90;;;;;;5030613;28;20045;-75
2022/01/20 09:07:38;;;;;;;17.63;2.47;;;2.90;99.90;;;;;;5062834;28;20044;-75
2022/01/20 09:10:07;;;;;;;12.40;2.70;;;3.00;99.90;;;;;;5058783;28;20046;-75
2022/01/20 09:17:47;;;;;;;9.33;2.17;;;3.40;99.90;;;;;;5032596;28;20087;-75
2022/01/20 09:20:13;;;;;;;4.77;1.20;;;3.50;99.90;;;;;;5064717;28;20076;-74
2022/01/20 09:22:39;;;;;;;8.60;1.57;;;3.40;99.90;;;;;;5012899;28;20135;-75
2022/01/20 09:25:07;;;;;;;8.40;1.80;;;3.20;99.90;;;;;;5047241;28;20041;-75
2022/01/20 09:27:33;;;;;;;4.27;1.33;;;3.10;99.90;;;;;;5078527;28;20057;-74
2022/01/20 09:30:01;;;;;;;5.87;1.10;;;3.00;99.90;;;;;;5018846;28;20076;-75
2022/01/20 09:32:28;;;;;;;5.67;1.20;;;3.00;99.90;;;;;;5054461;28;20688;-74
2022/01/20 09:34:56;;;;;;;5.10;1.27;;;3.10;99.90;;;;;;5033513;28;20354;-75
2022/01/20 09:37:22;;;;;;;4.87;1.20;;;3.10;99.90;;;;;;5033760;28;20049;-77
2022/01/20 09:39:48;;;;;;;9.07;1.60;;;3.20;99.90;;;;;;5041132;28;20110;-75
2022/01/20 09:42:14;;;;;;;7.30;1.67;;;3.30;99.90;;;;;;5021665;28;20041;-74
2022/01/20 09:44:47;;;;;;;10.70;2.43;;;3.40;99.90;;;;;;5067309;28;20427;-75
2022/01/20 09:47:17;;;;;;;6.20;1.40;;;3.50;99.90;;;;;;5020849;28;20044;-75
2022/01/20 09:49:43;;;;;;;6.17;1.47;;;3.40;99.90;;;;;;5053453;28;20040;-74
2022/01/20 09:52:09;;;;;;;6.73;1.40;;;3.30;99.90;;;;;;5042901;28;20045;-74
2022/01/20 09:54:36;;;;;;;5.57;1.30;;;3.20;99.90;;;;;;5012950;28;20359;-75
2022/01/20 09:57:02;;;;;;;5.23;1.50;;;3.10;99.90;;;;;;5011944;28;20059;-74
2022/01/20 09:59:30;;;;;;;6.13;1.30;;;3.10;99.90;;;;;;5029710;28;20119;-76
2022/01/20 10:01:58;;;;;;;10.17;1.90;;;3.00;99.90;;;;;;5032766;28;20101;-75
2022/01/20 10:04:31;;;;;;;8.10;1.57;;;3.00;99.90;;;;;;5053075;28;20613;-75
2022/01/20 10:07:00;;;;;;;8.73;1.70;;;3.00;99.90;;;;;;5037430;28;20052;-74
2022/01/20 10:09:30;;;;;;;10.80;1.70;;;3.00;99.90;;;;;;5069027;28;20044;-75
2022/01/20 10:11:56;;;;;;;8.60;1.87;;;3.00;99.90;;;;;;5037991;28;20041;-75
2022/01/20 10:14:22;;;;;;;7.23;2.20;;;3.10;99.90;;;;;;5020168;28;20052;-74
2022/01/20 10:16:48;;;;;;;10.47;1.67;;;3.30;99.90;;;;;;5033502;28;20060;-74
2022/01/20 10:19:26;;;;;;;10.77;2.43;;;3.40;99.90;;;;;;5046640;28;20115;-75
2022/01/20 10:21:52;;;;;;;7.83;1.93;;;3.60;99.90;;;;;;5040576;28;20079;-74
2022/01/20 10:24:19;;;;;;;8.67;2.00;;;3.70;99.90;;;;;;5041838;28;20048;-74
2022/01/20 10:26:50;;;;;;;14.20;2.33;;;3.70;99.90;;;;;;5040631;28;20048;-75
2022/01/20 10:29:16;;;;;;;7.83;1.80;;;3.80;99.90;;;;;;5057800;28;20056;-75
2022/01/20 10:31:45;;;;;;;14.40;2.40;;;3.90;99.90;;;;;;5024036;28;20037;-75
2022/01/20 10:34:20;;;;;;;11.87;1.93;;;4.00;99.90;;;;;;5041317;28;20053;-75
2022/01/20 10:36:53;;;;;;;9.10;2.20;;;4.20;99.90;;;;;;5028078;28;20054;-74
2022/01/20 10:39:32;;;;;;;13.17;2.00;;;4.30;99.90;;;;;;5040774;28;20128;-75
2022/01/20 10:42:00;;;;;;;11.93;2.17;;;4.50;99.90;;;;;;5048841;28;20076;-74
2022/01/20 10:44:27;;;;;;;14.13;2.97;;;4.60;99.90;;;;;;5040282;28;20068;-74
2022/01/20 10:46:58;;;;;;;16.03;2.60;;;4.60;99.90;;;;;;5058014;28;20120;-75
2022/01/20 10:49:30;;;;;;;9.73;2.00;;;4.50;99.90;;;;;;5040663;28;20056;-75
2022/01/20 10:52:03;;;;;;;10.87;2.37;;;4.50;99.90;;;;;;5040914;28;20060;-75
2022/01/20 10:54:42;;;;;;;8.73;1.97;;;4.60;99.90;;;;;;5053581;28;20503;-74
2022/01/20 10:57:10;;;;;;;13.40;2.17;;;4.60;99.90;;;;;;5039742;28;20049;-74
2022/01/20 10:59:48;;;;;;;10.63;2.00;;;4.70;99.90;;;;;;5040972;28;20052;-75
2022/01/20 11:02:18;;;;;;;13.50;2.23;;;4.80;99.90;;;;;;5032074;28;20049;-74
2022/01/20 11:04:44;;;;;;;14.53;2.13;;;4.80;99.90;;;;;;5040692;28;20037;-75
2022/01/20 11:07:09;;;;;;;7.60;1.43;;;4.70;99.90;;;;;;5015686;28;20325;-74
2022/01/20 11:09:40;;;;;;;7.50;1.70;;;4.60;99.90;;;;;;5056567;28;20057;-75
2022/01/20 11:12:06;;;;;;;10.83;1.40;;;4.50;99.90;;;;;;5042983;28;20079;-75
2022/01/20 11:14:33;;;;;;;7.07;1.37;;;4.50;99.90;;;;;;5039300;28;20049;-74
2022/01/20 11:17:00;;;;;;;13.13;2.10;;;4.50;99.90;;;;;;5040454;28;20045;-75
2022/01/20 11:19:26;;;;;;;11.80;2.10;;;4.50;99.90;;;;;;5023778;28;20056;-74
2022/01/20 11:22:08;;;;;;;8.47;1.70;;;4.50;99.90;;;;;;5040625;28;20622;-74
2022/01/20 11:24:34;;;;;;;10.68;2.65;;;4.50;99.90;;;;;;5026508;28;20056;-74
2022/01/20 11:27:01;;;;;;;8.43;1.70;;;4.60;99.90;;;;;;5023048;28;20053;-74
2022/01/20 11:29:45;;;;;;;10.93;2.13;;;4.60;99.90;;;;;;5040204;28;20041;-74
2022/01/20 11:32:24;;;;;;;9.63;2.43;;;4.70;99.90;;;;;;5039869;28;20055;-74
2022/01/20 11:35:03;;;;;;;7.53;1.93;;;4.90;99.90;;;;;;5039081;28;20060;-74
2022/01/20 11:37:34;;;;;;;8.10;2.03;;;4.90;99.90;;;;;;5073269;28;20445;-74
2022/01/20 11:40:10;;;;;;;11.35;1.90;;;4.90;99.90;;;;;;5056046;28;20049;-74
2022/01/20 11:42:36;;;;;;;8.93;1.80;;;4.80;99.90;;;;;;5040804;28;20040;-74
2022/01/20 11:45:34;;;;;;;5.93;1.53;;;4.70;99.90;;;;;;5023809;28;20443;-74
2022/01/20 11:48:19;;;;;;;10.40;2.20;;;4.50;99.90;;;;;;5060269;28;20045;-74
2022/01/20 11:50:46;;;;;;;11.30;2.20;;;4.20;99.90;;;;;;5028946;28;20067;-74
2022/01/20 11:53:13;;;;;;;8.40;2.07;;;4.10;99.90;;;;;;5005553;28;20500;-75
2022/01/20 11:55:47;;;;;;;11.90;2.30;;;4.00;99.90;;;;;;5039595;28;20045;-74
2022/01/20 11:58:15;;;;;;;7.67;2.57;;;4.00;99.90;;;;;;5055866;28;20053;-74
2022/01/20 12:00:41;;;;;;;12.20;2.10;;;4.00;99.90;;;;;;5062646;28;20105;-74
2022/01/20 12:03:15;;;;;;;11.33;2.40;;;4.20;99.90;;;;;;5023742;28;20057;-74
2022/01/20 12:05:42;;;;;;;10.13;2.20;;;4.30;99.90;;;;;;5039143;28;20452;-75
2022/01/20 12:08:10;;;;;;;8.40;2.23;;;4.20;99.90;;;;;;5039954;28;20067;-74
2022/01/20 12:10:37;;;;;;;8.27;1.70;;;4.10;99.90;;;;;;5038800;28;20080;-75
2022/01/20 12:13:11;;;;;;;7.90;1.40;;;3.80;99.90;;;;;;5032815;28;20139;-74
2022/01/20 12:15:52;;;;;;;3.07;1.17;;;3.70;99.90;;;;;;5009629;28;20040;-74
2022/01/20 12:18:18;;;;;;;8.63;1.47;;;3.50;99.90;;;;;;5038337;28;20293;-74
2022/01/20 12:20:45;;;;;;;8.73;2.20;;;3.40;99.90;;;;;;5040065;28;20731;-75
2022/01/20 12:23:11;;;;;;;9.37;1.90;;;3.40;99.90;;;;;;5019102;28;20060;-74
2022/01/20 12:25:37;;;;;;;15.43;2.17;;;3.50;99.90;;;;;;5056054;28;20054;-75
2022/01/20 12:28:09;;;;;;;9.20;1.23;;;3.50;99.90;;;;;;5038910;28;20045;-74
2022/01/20 12:30:40;;;;;;;10.73;2.00;;;3.60;99.90;;;;;;5038455;28;20052;-74
2022/01/20 12:33:12;;;;;;;6.50;2.00;;;3.70;99.90;;;;;;5046046;28;20496;-74
2022/01/20 12:35:49;;;;;;;6.10;1.48;;;3.70;99.90;;;;;;5038478;28;20110;-74
2022/01/20 12:38:27;;;;;;;7.00;1.70;;;3.70;99.90;;;;;;5039635;28;20064;-74
2022/01/20 12:41:07;;;;;;;8.97;1.73;;;3.70;99.90;;;;;;5055205;28;20127;-74
2022/01/20 12:43:57;;;;;;;7.20;1.83;;;3.80;99.90;;;;;;5063878;28;20878;-74
2022/01/20 12:46:34;;;;;;;12.67;2.23;;;3.90;99.90;;;;;;5030581;28;20051;-74
2022/01/20 12:49:04;;;;;;;13.07;2.90;;;4.00;99.90;;;;;;5054628;28;20334;-74
2022/01/20 12:51:38;;;;;;;10.67;1.70;;;4.10;99.90;;;;;;5055389;28;20045;-75
2022/01/20 12:54:11;;;;;;;8.63;2.30;;;4.20;99.90;;;;;;5038944;28;20408;-74
2022/01/20 12:56:44;;;;;;;13.77;2.13;;;4.30;99.90;;;;;;5066799;28;20087;-75
2022/01/20 12:59:11;;;;;;;7.60;1.90;;;4.30;99.90;;;;;;5038849;28;20139;-74
2022/01/20 13:01:45;;;;;;;13.33;2.90;;;4.30;99.90;;;;;;5021379;28;20071;-74
2022/01/20 13:04:14;;;;;;;11.13;2.03;;;4.30;99.90;;;;;;5022101;28;20119;-74
2022/01/20 13:06:47;;;;;;;8.60;1.93;;;4.30;99.90;;;;;;5055061;28;20049;-74
2022/01/20 13:09:13;;;;;;;9.10;2.13;;;4.40;99.90;;;;;;5043750;28;20581;-75
2022/01/20 13:11:52;;;;;;;11.47;2.10;;;4.40;99.90;;;;;;5039138;28;20049;-74
2022/01/20 13:14:18;;;;;;;10.03;2.07;;;4.40;99.90;;;;;;5042756;28;20545;-75
2022/01/20 13:16:55;;;;;;;14.63;2.77;;;4.50;99.90;;;;;;5040183;28;20670;-75
2022/01/20 13:19:33;;;;;;;13.07;2.50;;;4.60;99.90;;;;;;5038122;28;20582;-74
2022/01/20 13:22:00;;;;;;;8.73;2.57;;;4.60;99.90;;;;;;5038275;28;20128;-74
2022/01/20 13:24:28;;;;;;;13.07;2.43;;;4.60;99.90;;;;;;5054431;28;20649;-74
2022/01/20 13:26:56;;;;;;;11.80;2.90;;;4.50;99.90;;;;;;5040810;28;20056;-75
2022/01/20 13:29:23;;;;;;;13.40;2.40;;;4.50;99.90;;;;;;5054795;28;20109;-74
2022/01/20 13:31:51;;;;;;;11.10;2.57;;;4.50;99.90;;;;;;5037459;28;20515;-75
2022/01/20 13:34:19;;;;;;;11.47;2.93;;;4.60;99.90;;;;;;5037964;28;20041;-74
2022/01/20 13:36:48;;;;;;;10.90;3.23;;;4.70;99.90;;;;;;5048049;28;20040;-75
2022/01/20 13:39:26;;;;;;;12.37;1.87;;;4.70;99.90;;;;;;5041753;28;20059;-76
2022/01/20 13:42:07;;;;;;;8.20;1.30;;;4.50;99.90;;;;;;5086675;28;20049;-76
2022/01/20 13:47:17;;;;;;;7.20;1.73;;;4.00;99.90;;;;;;5054254;28;20072;-76
2022/01/20 13:49:52;;;;;;;6.00;1.57;;;3.80;99.90;;;;;;5020629;28;20056;-75
2022/01/20 13:52:20;;;;;;;5.53;1.23;;;3.80;99.90;;;;;;5039763;28;20049;-76
2022/01/20 13:54:56;;;;;;;4.90;1.50;;;3.80;99.90;;;;;;5038136;28;20466;-76
2022/01/20 13:57:23;;;;;;;5.03;1.33;;;3.90;99.90;;;;;;5037012;28;20135;-75
2022/01/20 13:59:57;;;;;;;8.30;1.30;;;3.80;99.90;;;;;;5026407;28;20060;-76
2022/01/20 14:02:24;;;;;;;4.90;1.20;;;4.00;99.90;;;;;;5028557;28;20048;-75